sensor_id;sensor_type;location;lat;lon;timestamp;pressure;altitude;pressure_sealevel;temperature;humidity
30339;BME280;795;49.296;11.348;2022-10-16T00:01:40;96351.31;;;14.53;100.00
30339;BME280;795;49.296;11.348;2022-10-16T00:04:08;96375.28;;;14.63;100.00
30339;BME280;795;49.296;11.348;2022-10-16T00:06:35;96363.41;;;14.57;100.00
30339;BME280;795;49.296;11.348;2022-10-16T00:09:03;96361.97;;;14.61;100.00
30339;BME280;795;49.296;11.348;2022-10-16T00:11:35;96365.50;;;14.61;100.00
30339;BME280;795;49.296;11.348;2022-10-16T00:14:12;96360.81;;;14.49;100.00
30339;BME280;795;49.296;11.348;2022-10-16T00:16:40;96367.53;;;14.53;100.00
30339;BME280;795;49.296;11.348;2022-10-16T00:19:07;96344.06;;;14.32;100.00
30339;BME280;795;49.296;11.348;2022-10-16T00:21:35;96378.59;;;14.58;100.00
30339;BME280;795;49.296;11.348;2022-10-16T00:24:08;96355.03;;;14.52;100.00
30339;BME280;795;49.296;11.348;2022-10-16T00:26:38;96362.88;;;14.47;100.00
30339;BME280;795;49.296;11.348;2022-10-16T00:29:06;96363.09;;;14.45;100.00
30339;BME280;795;49.296;11.348;2022-10-16T00:31:33;96368.16;;;14.55;100.00
30339;BME280;795;49.296;11.348;2022-10-16T00:34:00;96342.88;;;14.41;100.00
30339;BME280;795;49.296;11.348;2022-10-16T00:36:28;96366.84;;;14.51;100.00
30339;BME280;795;49.296;11.348;2022-10-16T00:38:57;96377.03;;;14.49;100.00
30339;BME280;795;49.296;11.348;2022-10-16T00:41:28;96381.78;;;14.47;100.00
30339;BME280;795;49.296;11.348;2022-10-16T00:44:03;96388.47;;;14.51;100.00
30339;BME280;795;49.296;11.348;2022-10-16T00:46:42;96380.13;;;14.46;100.00
30339;BME280;795;49.296;11.348;2022-10-16T00:49:16;96393.75;;;14.59;100.00
30339;BME280;795;49.296;11.348;2022-10-16T00:51:49;96381.28;;;14.58;100.00
30339;BME280;795;49.296;11.348;2022-10-16T00:54:26;96377.91;;;14.56;100.00
30339;BME280;795;49.296;11.348;2022-10-16T00:56:58;96397.03;;;14.54;100.00
30339;BME280;795;49.296;11.348;2022-10-16T00:59:36;96375.28;;;14.41;100.00
30339;BME280;795;49.296;11.348;2022-10-16T01:02:09;96395.56;;;14.52;100.00
30339;BME280;795;49.296;11.348;2022-10-16T01:05:04;96382.13;;;14.37;100.00
30339;BME280;795;49.296;11.348;2022-10-16T01:08:07;96381.91;;;14.39;100.00
30339;BME280;795;49.296;11.348;2022-10-16T01:11:05;96400.66;;;14.40;100.00
30339;BME280;795;49.296;11.348;2022-10-16T01:13:46;96380.84;;;14.33;100.00
30339;BME280;795;49.296;11.348;2022-10-16T01:19:12;96386.03;;;14.35;100.00
30339;BME280;795;49.296;11.348;2022-10-16T01:21:47;96375.63;;;14.32;100.00
30339;BME280;795;49.296;11.348;2022-10-16T01:24:41;96377.59;;;14.23;100.00
30339;BME280;795;49.296;11.348;2022-10-16T01:27:30;96402.81;;;14.30;100.00
30339;BME280;795;49.296;11.348;2022-10-16T01:30:22;96402.31;;;14.27;100.00
30339;BME280;795;49.296;11.348;2022-10-16T01:33:02;96410.53;;;14.33;100.00
30339;BME280;795;49.296;11.348;2022-10-16T01:35:46;96391.72;;;14.25;100.00
30339;BME280;795;49.296;11.348;2022-10-16T01:38:30;96377.84;;;14.28;100.00
30339;BME280;795;49.296;11.348;2022-10-16T01:41:24;96408.91;;;14.39;100.00
30339;BME280;795;49.296;11.348;2022-10-16T01:44:08;96370.69;;;14.21;100.00
30339;BME280;795;49.296;11.348;2022-10-16T01:46:42;96408.91;;;14.39;100.00
30339;BME280;795;49.296;11.348;2022-10-16T01:49:12;96423.91;;;14.41;100.00
30339;BME280;795;49.296;11.348;2022-10-16T01:51:45;96401.50;;;14.26;100.00
30339;BME280;795;49.296;11.348;2022-10-16T01:54:18;96397.50;;;14.22;100.00
30339;BME280;795;49.296;11.348;2022-10-16T01:56:50;96408.88;;;14.32;100.00
30339;BME280;795;49.296;11.348;2022-10-16T01:59:23;96412.59;;;14.31;100.00
30339;BME280;795;49.296;11.348;2022-10-16T02:02:05;96435.88;;;14.32;100.00
30339;BME280;795;49.296;11.348;2022-10-16T02:04:51;96439.22;;;14.34;100.00
30339;BME280;795;49.296;11.348;2022-10-16T02:07:19;96424.72;;;14.21;100.00
30339;BME280;795;49.296;11.348;2022-10-16T02:09:46;96429.16;;;14.28;100.00
30339;BME280;795;49.296;11.348;2022-10-16T02:12:25;96439.97;;;14.28;100.00
30339;BME280;795;49.296;11.348;2022-10-16T02:14:55;96444.88;;;14.39;100.00
30339;BME280;795;49.296;11.348;2022-10-16T02:17:23;96449.84;;;14.36;100.00
30339;BME280;795;49.296;11.348;2022-10-16T02:19:55;96440.44;;;14.32;100.00
30339;BME280;795;49.296;11.348;2022-10-16T02:22:41;96421.72;;;14.30;100.00
30339;BME280;795;49.296;11.348;2022-10-16T02:25:13;96446.81;;;14.45;100.00
30339;BME280;795;49.296;11.348;2022-10-16T02:30:39;96422.00;;;14.35;100.00
30339;BME280;795;49.296;11.348;2022-10-16T02:33:12;96445.13;;;14.44;100.00
30339;BME280;795;49.296;11.348;2022-10-16T02:35:44;96421.72;;;14.30;100.00
30339;BME280;795;49.296;11.348;2022-10-16T02:38:14;96430.16;;;14.42;100.00
30339;BME280;795;49.296;11.348;2022-10-16T02:40:43;96400.75;;;14.32;100.00
30339;BME280;795;49.296;11.348;2022-10-16T02:43:11;96430.63;;;14.45;100.00
30339;BME280;795;49.296;11.348;2022-10-16T02:45:38;96428.19;;;14.50;100.00
30339;BME280;795;49.296;11.348;2022-10-16T02:48:06;96438.53;;;14.47;100.00
30339;BME280;795;49.296;11.348;2022-10-16T02:50:33;96438.31;;;14.48;100.00
30339;BME280;795;49.296;11.348;2022-10-16T02:53:01;96413.25;;;14.33;100.00
30339;BME280;795;49.296;11.348;2022-10-16T02:55:28;96425.66;;;14.49;100.00
30339;BME280;795;49.296;11.348;2022-10-16T02:57:55;96424.63;;;14.50;100.00
30339;BME280;795;49.296;11.348;2022-10-16T03:00:22;96422.94;;;14.49;100.00
30339;BME280;795;49.296;11.348;2022-10-16T03:02:49;96422.06;;;14.42;100.00
30339;BME280;795;49.296;11.348;2022-10-16T03:05:16;96416.84;;;14.40;100.00
30339;BME280;795;49.296;11.348;2022-10-16T03:07:43;96431.47;;;14.46;100.00
30339;BME280;795;49.296;11.348;2022-10-16T03:10:10;96410.81;;;14.38;100.00
30339;BME280;795;49.296;11.348;2022-10-16T03:12:37;96384.84;;;14.23;100.00
30339;BME280;795;49.296;11.348;2022-10-16T03:15:05;96403.38;;;14.26;100.00
30339;BME280;795;49.296;11.348;2022-10-16T03:17:33;96417.31;;;14.29;100.00
30339;BME280;795;49.296;11.348;2022-10-16T03:20:00;96430.94;;;14.36;100.00
30339;BME280;795;49.296;11.348;2022-10-16T03:22:27;96421.22;;;14.27;100.00
30339;BME280;795;49.296;11.348;2022-10-16T03:24:54;96408.88;;;14.18;100.00
30339;BME280;795;49.296;11.348;2022-10-16T03:27:21;96403.09;;;14.21;100.00
30339;BME280;795;49.296;11.348;2022-10-16T03:29:48;96421.34;;;14.33;100.00
30339;BME280;795;49.296;11.348;2022-10-16T03:32:14;96403.69;;;14.16;100.00
30339;BME280;795;49.296;11.348;2022-10-16T03:34:41;96433.50;;;14.29;100.00
30339;BME280;795;49.296;11.348;2022-10-16T03:37:08;96434.22;;;14.31;100.00
30339;BME280;795;49.296;11.348;2022-10-16T03:39:35;96412.06;;;14.21;100.00
30339;BME280;795;49.296;11.348;2022-10-16T03:42:02;96434.34;;;14.30;100.00
30339;BME280;795;49.296;11.348;2022-10-16T03:44:29;96447.56;;;14.39;100.00
30339;BME280;795;49.296;11.348;2022-10-16T03:46:56;96434.84;;;14.33;100.00
30339;BME280;795;49.296;11.348;2022-10-16T03:49:23;96426.00;;;14.25;100.00
30339;BME280;795;49.296;11.348;2022-10-16T03:51:50;96424.97;;;14.26;100.00
30339;BME280;795;49.296;11.348;2022-10-16T03:54:17;96441.47;;;14.31;100.00
30339;BME280;795;49.296;11.348;2022-10-16T03:56:44;96447.00;;;14.29;100.00
30339;BME280;795;49.296;11.348;2022-10-16T03:59:11;96419.69;;;14.18;100.00
30339;BME280;795;49.296;11.348;2022-10-16T04:01:37;96419.88;;;14.16;100.00
30339;BME280;795;49.296;11.348;2022-10-16T04:04:04;96426.59;;;14.06;100.00
30339;BME280;795;49.296;11.348;2022-10-16T04:06:31;96442.75;;;14.20;100.00
30339;BME280;795;49.296;11.348;2022-10-16T04:08:59;96436.53;;;14.20;100.00
30339;BME280;795;49.296;11.348;2022-10-16T04:11:26;96440.28;;;14.19;100.00
30339;BME280;795;49.296;11.348;2022-10-16T04:13:53;96451.50;;;14.22;100.00
30339;BME280;795;49.296;11.348;2022-10-16T04:16:20;96429.00;;;14.15;100.00
30339;BME280;795;49.296;11.348;2022-10-16T04:18:47;96438.22;;;14.21;100.00
30339;BME280;795;49.296;11.348;2022-10-16T04:21:14;96467.25;;;14.33;100.00
30339;BME280;795;49.296;11.348;2022-10-16T04:23:42;96434.78;;;14.12;100.00
30339;BME280;795;49.296;11.348;2022-10-16T04:26:09;96447.78;;;14.23;100.00
30339;BME280;795;49.296;11.348;2022-10-16T04:28:37;96474.00;;;14.44;100.00
30339;BME280;795;49.296;11.348;2022-10-16T04:31:06;96470.81;;;14.34;100.00
30339;BME280;795;49.296;11.348;2022-10-16T04:33:33;96474.69;;;14.46;100.00
30339;BME280;795;49.296;11.348;2022-10-16T04:36:03;96464.03;;;14.44;100.00
30339;BME280;795;49.296;11.348;2022-10-16T04:38:30;96452.53;;;14.36;100.00
30339;BME280;795;49.296;11.348;2022-10-16T04:40:58;96437.38;;;14.20;100.00
30339;BME280;795;49.296;11.348;2022-10-16T04:43:25;96466.69;;;14.38;100.00
30339;BME280;795;49.296;11.348;2022-10-16T04:45:52;96474.88;;;14.30;100.00
30339;BME280;795;49.296;11.348;2022-10-16T04:48:21;96432.06;;;14.12;100.00
30339;BME280;795;49.296;11.348;2022-10-16T04:50:48;96458.38;;;14.25;100.00
30339;BME280;795;49.296;11.348;2022-10-16T04:53:21;96450.03;;;14.20;100.00
30339;BME280;795;49.296;11.348;2022-10-16T04:55:49;96462.56;;;14.27;100.00
30339;BME280;795;49.296;11.348;2022-10-16T04:58:17;96451.13;;;14.25;100.00
30339;BME280;795;49.296;11.348;2022-10-16T05:00:45;96416.31;;;13.94;100.00
30339;BME280;795;49.296;11.348;2022-10-16T05:03:13;96458.59;;;14.23;100.00
30339;BME280;795;49.296;11.348;2022-10-16T05:05:45;96454.03;;;14.24;100.00
30339;BME280;795;49.296;11.348;2022-10-16T05:08:15;96415.16;;;14.04;100.00
30339;BME280;795;49.296;11.348;2022-10-16T05:10:44;96442.38;;;14.23;100.00
30339;BME280;795;49.296;11.348;2022-10-16T05:13:12;96444.03;;;14.24;100.00
30339;BME280;795;49.296;11.348;2022-10-16T05:15:39;96449.91;;;14.28;100.00
30339;BME280;795;49.296;11.348;2022-10-16T05:18:06;96445.47;;;14.20;100.00
30339;BME280;795;49.296;11.348;2022-10-16T05:20:33;96428.88;;;14.02;100.00
30339;BME280;795;49.296;11.348;2022-10-16T05:23:00;96440.84;;;14.14;100.00
30339;BME280;795;49.296;11.348;2022-10-16T05:25:27;96454.13;;;14.16;100.00
30339;BME280;795;49.296;11.348;2022-10-16T05:27:54;96446.34;;;14.06;100.00
30339;BME280;795;49.296;11.348;2022-10-16T05:30:21;96433.03;;;14.05;100.00
30339;BME280;795;49.296;11.348;2022-10-16T05:32:50;96470.97;;;14.18;100.00
30339;BME280;795;49.296;11.348;2022-10-16T05:35:19;96477.97;;;14.12;100.00
30339;BME280;795;49.296;11.348;2022-10-16T05:37:47;96470.09;;;13.96;100.00
30339;BME280;795;49.296;11.348;2022-10-16T05:40:15;96493.81;;;14.01;100.00
30339;BME280;795;49.296;11.348;2022-10-16T05:42:43;96495.13;;;14.05;100.00
30339;BME280;795;49.296;11.348;2022-10-16T05:45:11;96489.91;;;14.03;100.00
30339;BME280;795;49.296;11.348;2022-10-16T05:47:39;96487.97;;;13.97;100.00
30339;BME280;795;49.296;11.348;2022-10-16T05:50:07;96498.38;;;14.00;100.00
30339;BME280;795;49.296;11.348;2022-10-16T05:52:34;96489.00;;;13.81;100.00
30339;BME280;795;49.296;11.348;2022-10-16T05:55:02;96493.38;;;13.82;100.00
30339;BME280;795;49.296;11.348;2022-10-16T05:57:29;96489.09;;;13.73;100.00
30339;BME280;795;49.296;11.348;2022-10-16T05:59:56;96504.53;;;13.79;100.00
30339;BME280;795;49.296;11.348;2022-10-16T06:02:23;96502.84;;;13.78;100.00
30339;BME280;795;49.296;11.348;2022-10-16T06:04:52;96510.22;;;13.84;100.00
30339;BME280;795;49.296;11.348;2022-10-16T06:07:22;96519.88;;;13.93;100.00
30339;BME280;795;49.296;11.348;2022-10-16T06:09:52;96523.44;;;13.94;100.00
30339;BME280;795;49.296;11.348;2022-10-16T06:12:19;96525.13;;;13.95;100.00
30339;BME280;795;49.296;11.348;2022-10-16T06:14:46;96528.75;;;14.02;100.00
30339;BME280;795;49.296;11.348;2022-10-16T06:17:14;96518.38;;;14.06;100.00
30339;BME280;795;49.296;11.348;2022-10-16T06:19:42;96503.22;;;14.05;100.00
30339;BME280;795;49.296;11.348;2022-10-16T06:22:09;96528.53;;;14.33;100.00
30339;BME280;795;49.296;11.348;2022-10-16T06:24:36;96528.44;;;14.41;100.00
30339;BME280;795;49.296;11.348;2022-10-16T06:27:04;96526.81;;;14.46;100.00
30339;BME280;795;49.296;11.348;2022-10-16T06:29:31;96504.88;;;14.35;100.00
30339;BME280;795;49.296;11.348;2022-10-16T06:31:58;96452.59;;;14.07;100.00
30339;BME280;795;49.296;11.348;2022-10-16T06:34:25;96522.53;;;14.52;100.00
30339;BME280;795;49.296;11.348;2022-10-16T06:36:52;96536.31;;;14.57;100.00
30339;BME280;795;49.296;11.348;2022-10-16T06:39:19;96533.69;;;14.49;100.00
30339;BME280;795;49.296;11.348;2022-10-16T06:41:46;96503.59;;;14.31;100.00
30339;BME280;795;49.296;11.348;2022-10-16T06:44:13;96518.38;;;14.35;100.00
30339;BME280;795;49.296;11.348;2022-10-16T06:46:40;96535.19;;;14.51;100.00
30339;BME280;795;49.296;11.348;2022-10-16T06:49:07;96535.66;;;14.55;100.00
30339;BME280;795;49.296;11.348;2022-10-16T06:51:34;96540.28;;;14.61;100.00
30339;BME280;795;49.296;11.348;2022-10-16T06:54:07;96499.22;;;14.51;100.00
30339;BME280;795;49.296;11.348;2022-10-16T06:56:35;96536.91;;;14.95;100.00
30339;BME280;795;49.296;11.348;2022-10-16T06:59:03;96542.59;;;15.21;100.00
30339;BME280;795;49.296;11.348;2022-10-16T07:01:31;96531.38;;;15.45;100.00
30339;BME280;795;49.296;11.348;2022-10-16T07:03:58;96508.75;;;15.32;100.00
30339;BME280;795;49.296;11.348;2022-10-16T07:06:29;96523.78;;;15.41;100.00
30339;BME280;795;49.296;11.348;2022-10-16T07:08:57;96541.00;;;15.54;100.00
30339;BME280;795;49.296;11.348;2022-10-16T07:11:24;96539.72;;;15.50;100.00
30339;BME280;795;49.296;11.348;2022-10-16T07:13:52;96543.25;;;15.51;100.00
30339;BME280;795;49.296;11.348;2022-10-16T07:16:31;96519.72;;;15.45;100.00
30339;BME280;795;49.296;11.348;2022-10-16T07:19:02;96551.00;;;15.54;100.00
30339;BME280;795;49.296;11.348;2022-10-16T07:21:34;96566.06;;;15.63;100.00
30339;BME280;795;49.296;11.348;2022-10-16T07:24:12;96566.00;;;15.56;100.00
30339;BME280;795;49.296;11.348;2022-10-16T07:26:45;96535.56;;;15.48;100.00
30339;BME280;795;49.296;11.348;2022-10-16T07:29:18;96553.94;;;15.59;100.00
30339;BME280;795;49.296;11.348;2022-10-16T07:31:48;96575.31;;;15.75;100.00
30339;BME280;795;49.296;11.348;2022-10-16T07:34:18;96559.63;;;15.64;100.00
30339;BME280;795;49.296;11.348;2022-10-16T07:36:49;96585.59;;;15.86;100.00
30339;BME280;795;49.296;11.348;2022-10-16T07:39:17;96591.28;;;15.91;100.00
30339;BME280;795;49.296;11.348;2022-10-16T07:41:44;96567.59;;;15.72;100.00
30339;BME280;795;49.296;11.348;2022-10-16T07:44:11;96550.31;;;15.73;100.00
30339;BME280;795;49.296;11.348;2022-10-16T07:46:38;96588.56;;;15.91;100.00
30339;BME280;795;49.296;11.348;2022-10-16T07:49:05;96582.78;;;16.01;100.00
30339;BME280;795;49.296;11.348;2022-10-16T07:51:32;96582.72;;;15.94;100.00
30339;BME280;795;49.296;11.348;2022-10-16T07:53:59;96591.31;;;15.98;100.00
30339;BME280;795;49.296;11.348;2022-10-16T07:56:26;96604.88;;;16.04;100.00
30339;BME280;795;49.296;11.348;2022-10-16T07:58:53;96598.19;;;16.00;100.00
30339;BME280;795;49.296;11.348;2022-10-16T08:03:53;96557.09;;;15.62;100.00
30339;BME280;795;49.296;11.348;2022-10-16T08:06:21;96580.78;;;15.81;100.00
30339;BME280;795;49.296;11.348;2022-10-16T08:08:55;96570.78;;;15.82;100.00
30339;BME280;795;49.296;11.348;2022-10-16T08:11:23;96539.88;;;15.70;100.00
30339;BME280;795;49.296;11.348;2022-10-16T08:13:50;96555.41;;;15.89;100.00
30339;BME280;795;49.296;11.348;2022-10-16T08:16:17;96563.47;;;16.10;100.00
30339;BME280;795;49.296;11.348;2022-10-16T08:18:44;96571.75;;;16.36;100.00
30339;BME280;795;49.296;11.348;2022-10-16T08:21:20;96581.28;;;16.67;100.00
30339;BME280;795;49.296;11.348;2022-10-16T08:23:49;96563.38;;;16.79;100.00
30339;BME280;795;49.296;11.348;2022-10-16T08:26:23;96570.13;;;16.96;100.00
30339;BME280;795;49.296;11.348;2022-10-16T08:28:51;96548.41;;;16.96;100.00
30339;BME280;795;49.296;11.348;2022-10-16T08:31:19;96581.22;;;17.27;100.00
30339;BME280;795;49.296;11.348;2022-10-16T08:33:47;96601.16;;;17.60;100.00
30339;BME280;795;49.296;11.348;2022-10-16T08:36:16;96598.44;;;17.93;100.00
30339;BME280;795;49.296;11.348;2022-10-16T08:38:47;96591.94;;;18.07;100.00
30339;BME280;795;49.296;11.348;2022-10-16T08:42:07;96595.66;;;18.45;100.00
30339;BME280;795;49.296;11.348;2022-10-16T08:51:36;96575.34;;;19.68;100.00
30339;BME280;795;49.296;11.348;2022-10-16T08:54:28;96593.53;;;19.49;100.00
30339;BME280;795;49.296;11.348;2022-10-16T08:57:11;96550.56;;;19.13;100.00
30339;BME280;795;49.296;11.348;2022-10-16T08:59:38;96572.19;;;19.08;100.00
30339;BME280;795;49.296;11.348;2022-10-16T09:02:38;96606.16;;;19.31;100.00
30339;BME280;795;49.296;11.348;2022-10-16T09:08:05;96617.75;;;20.74;100.00
30339;BME280;795;49.296;11.348;2022-10-16T09:10:59;96608.56;;;21.23;95.62
30339;BME280;795;49.296;11.348;2022-10-16T09:14:17;96628.53;;;21.53;94.21
30339;BME280;795;49.296;11.348;2022-10-16T09:17:01;96627.31;;;21.49;93.20
30339;BME280;795;49.296;11.348;2022-10-16T09:19:43;96595.09;;;20.92;95.43
30339;BME280;795;49.296;11.348;2022-10-16T09:22:16;96628.09;;;21.08;93.65
30339;BME280;795;49.296;11.348;2022-10-16T09:24:44;96623.44;;;20.55;96.87
30339;BME280;795;49.296;11.348;2022-10-16T09:27:15;96600.53;;;20.37;99.19
30339;BME280;795;49.296;11.348;2022-10-16T09:29:42;96590.53;;;20.49;100.00
30339;BME280;795;49.296;11.348;2022-10-16T09:32:19;96612.75;;;20.89;95.70
30339;BME280;795;49.296;11.348;2022-10-16T09:34:55;96615.88;;;21.11;93.60
30339;BME280;795;49.296;11.348;2022-10-16T09:37:26;96604.78;;;21.54;93.95
30339;BME280;795;49.296;11.348;2022-10-16T09:39:54;96626.50;;;21.49;93.06
30339;BME280;795;49.296;11.348;2022-10-16T09:42:32;96626.66;;;21.24;92.11
30339;BME280;795;49.296;11.348;2022-10-16T09:45:01;96626.16;;;20.55;96.21
30339;BME280;795;49.296;11.348;2022-10-16T09:47:31;96638.53;;;20.32;98.32
30339;BME280;795;49.296;11.348;2022-10-16T09:50:26;96644.53;;;20.16;100.00
30339;BME280;795;49.296;11.348;2022-10-16T09:53:13;96648.00;;;19.80;100.00
30339;BME280;795;49.296;11.348;2022-10-16T09:55:54;96638.72;;;19.57;100.00
30339;BME280;795;49.296;11.348;2022-10-16T09:58:24;96624.16;;;19.69;100.00
30339;BME280;795;49.296;11.348;2022-10-16T10:00:54;96614.16;;;19.63;99.66
30339;BME280;795;49.296;11.348;2022-10-16T10:03:41;96623.63;;;19.85;98.25
30339;BME280;795;49.296;11.348;2022-10-16T10:06:28;96632.81;;;20.40;96.63
30339;BME280;795;49.296;11.348;2022-10-16T10:09:32;96642.13;;;20.76;96.44
30339;BME280;795;49.296;11.348;2022-10-16T10:12:04;96649.13;;;20.83;93.83
30339;BME280;795;49.296;11.348;2022-10-16T10:14:47;96667.88;;;20.80;93.55
30339;BME280;795;49.296;11.348;2022-10-16T10:17:22;96652.09;;;20.82;92.57
30339;BME280;795;49.296;11.348;2022-10-16T10:20:00;96661.59;;;21.15;94.65
30339;BME280;795;49.296;11.348;2022-10-16T10:22:40;96665.38;;;21.33;90.30
30339;BME280;795;49.296;11.348;2022-10-16T10:34:35;96627.69;;;20.87;90.78
30339;BME280;795;49.296;11.348;2022-10-16T10:37:54;96644.22;;;20.92;93.31
30339;BME280;795;49.296;11.348;2022-10-16T10:41:23;96638.31;;;21.31;93.29
30339;BME280;795;49.296;11.348;2022-10-16T10:53:55;96660.19;;;22.67;81.80
30339;BME280;795;49.296;11.348;2022-10-16T11:03:13;96668.09;;;23.66;77.83
30339;BME280;795;49.296;11.348;2022-10-16T11:05:50;96655.34;;;24.16;74.50
30339;BME280;795;49.296;11.348;2022-10-16T11:11:49;96664.34;;;25.60;66.71
30339;BME280;795;49.296;11.348;2022-10-16T11:14:55;96667.66;;;25.40;65.84
30339;BME280;795;49.296;11.348;2022-10-16T11:17:27;96667.22;;;24.72;69.36
30339;BME280;795;49.296;11.348;2022-10-16T11:20:12;96652.09;;;24.19;72.59
30339;BME280;795;49.296;11.348;2022-10-16T11:22:59;96657.84;;;24.06;71.80
30339;BME280;795;49.296;11.348;2022-10-16T11:25:33;96653.81;;;24.09;73.48
30339;BME280;795;49.296;11.348;2022-10-16T11:28:35;96642.84;;;23.52;75.20
30339;BME280;795;49.296;11.348;2022-10-16T11:31:31;96664.25;;;23.39;78.59
30339;BME280;795;49.296;11.348;2022-10-16T11:34:26;96666.31;;;23.08;77.21
30339;BME280;795;49.296;11.348;2022-10-16T11:39:46;96647.03;;;22.45;77.33
30339;BME280;795;49.296;11.348;2022-10-16T11:42:36;96658.81;;;22.34;81.60
30339;BME280;795;49.296;11.348;2022-10-16T11:45:42;96676.53;;;22.55;79.66
30339;BME280;795;49.296;11.348;2022-10-16T11:48:33;96664.66;;;22.84;79.34
30339;BME280;795;49.296;11.348;2022-10-16T11:53:59;96670.66;;;23.33;76.71
30339;BME280;795;49.296;11.348;2022-10-16T11:56:31;96679.59;;;23.51;74.39
30339;BME280;795;49.296;11.348;2022-10-16T11:59:21;96667.63;;;23.18;74.46
30339;BME280;795;49.296;11.348;2022-10-16T12:02:32;96687.28;;;23.66;72.51
30339;BME280;795;49.296;11.348;2022-10-16T12:08:10;96679.56;;;26.48;62.08
30339;BME280;795;49.296;11.348;2022-10-16T12:10:42;96673.53;;;27.24;55.84
30339;BME280;795;49.296;11.348;2022-10-16T12:13:39;96692.59;;;27.88;51.59
30339;BME280;795;49.296;11.348;2022-10-16T12:16:23;96687.22;;;28.53;49.59
30339;BME280;795;49.296;11.348;2022-10-16T12:19:16;96661.22;;;28.59;48.80
30339;BME280;795;49.296;11.348;2022-10-16T12:21:45;96691.91;;;28.88;48.41
30339;BME280;795;49.296;11.348;2022-10-16T12:24:34;96658.16;;;29.16;46.36
30339;BME280;795;49.296;11.348;2022-10-16T12:29:59;96683.47;;;29.69;45.95
30339;BME280;795;49.296;11.348;2022-10-16T12:32:33;96689.50;;;29.76;45.83
30339;BME280;795;49.296;11.348;2022-10-16T12:35:33;96685.09;;;30.34;44.25
30339;BME280;795;49.296;11.348;2022-10-16T12:38:25;96694.72;;;30.80;44.06
30339;BME280;795;49.296;11.348;2022-10-16T12:41:07;96686.38;;;31.14;42.32
30339;BME280;795;49.296;11.348;2022-10-16T12:43:45;96687.78;;;30.44;43.45
30339;BME280;795;49.296;11.348;2022-10-16T12:48:43;96684.75;;;28.87;46.94
30339;BME280;795;49.296;11.348;2022-10-16T12:54:18;96657.41;;;26.06;56.90
30339;BME280;795;49.296;11.348;2022-10-16T13:06:22;96669.28;;;26.38;56.31
30339;BME280;795;49.296;11.348;2022-10-16T13:09:58;96673.41;;;26.35;54.21
30339;BME280;795;49.296;11.348;2022-10-16T13:16:40;96689.75;;;26.15;55.15
30339;BME280;795;49.296;11.348;2022-10-16T13:19:33;96679.31;;;27.80;49.67
30339;BME280;795;49.296;11.348;2022-10-16T13:22:51;96698.44;;;30.21;44.42
30339;BME280;795;49.296;11.348;2022-10-16T13:25:57;96699.22;;;29.68;44.97
30339;BME280;795;49.296;11.348;2022-10-16T13:28:33;96685.81;;;28.36;47.37
30339;BME280;795;49.296;11.348;2022-10-16T13:31:02;96698.00;;;27.62;48.87
30339;BME280;795;49.296;11.348;2022-10-16T13:33:39;96705.81;;;27.81;48.91
30339;BME280;795;49.296;11.348;2022-10-16T13:36:47;96706.03;;;28.91;46.01
30339;BME280;795;49.296;11.348;2022-10-16T13:42:22;96707.06;;;28.30;48.36
30339;BME280;795;49.296;11.348;2022-10-16T13:44:56;96705.94;;;30.16;43.91
30339;BME280;795;49.296;11.348;2022-10-16T13:47:29;96699.25;;;30.27;43.74
30339;BME280;795;49.296;11.348;2022-10-16T13:50:08;96696.00;;;29.36;45.47
30339;BME280;795;49.296;11.348;2022-10-16T13:52:37;96681.41;;;28.90;46.26
30339;BME280;795;49.296;11.348;2022-10-16T13:55:18;96683.56;;;28.12;48.39
30339;BME280;795;49.296;11.348;2022-10-16T13:57:45;96680.31;;;28.41;46.13
30339;BME280;795;49.296;11.348;2022-10-16T14:00:24;96698.78;;;28.35;47.86
30339;BME280;795;49.296;11.348;2022-10-16T14:03:28;96698.13;;;27.93;48.31
30339;BME280;795;49.296;11.348;2022-10-16T14:06:18;96699.63;;;28.31;47.15
30339;BME280;795;49.296;11.348;2022-10-16T14:09:25;96702.03;;;26.98;48.49
30339;BME280;795;49.296;11.348;2022-10-16T14:12:03;96699.03;;;25.23;54.15
30339;BME280;795;49.296;11.348;2022-10-16T14:14:45;96695.53;;;25.70;53.41
30339;BME280;795;49.296;11.348;2022-10-16T14:17:28;96692.25;;;24.59;57.39
30339;BME280;795;49.296;11.348;2022-10-16T14:20:04;96707.53;;;23.65;60.75
30339;BME280;795;49.296;11.348;2022-10-16T14:22:40;96712.38;;;23.35;61.56
30339;BME280;795;49.296;11.348;2022-10-16T14:28:15;96701.22;;;22.78;65.42
30339;BME280;795;49.296;11.348;2022-10-16T14:30:57;96712.03;;;22.50;67.94
30339;BME280;795;49.296;11.348;2022-10-16T14:33:33;96711.53;;;22.41;70.03
30339;BME280;795;49.296;11.348;2022-10-16T14:38:38;96713.31;;;23.52;67.17
30339;BME280;795;49.296;11.348;2022-10-16T14:41:06;96714.72;;;25.65;59.38
30339;BME280;795;49.296;11.348;2022-10-16T14:43:43;96717.22;;;27.06;55.35
30339;BME280;795;49.296;11.348;2022-10-16T14:46:29;96718.63;;;28.12;53.26
30339;BME280;795;49.296;11.348;2022-10-16T14:49:16;96721.00;;;27.93;52.22
30339;BME280;795;49.296;11.348;2022-10-16T14:51:44;96727.31;;;28.76;50.78
30339;BME280;795;49.296;11.348;2022-10-16T14:54:17;96719.84;;;27.74;53.65
30339;BME280;795;49.296;11.348;2022-10-16T14:56:53;96721.47;;;26.23;56.70
30339;BME280;795;49.296;11.348;2022-10-16T14:59:40;96714.66;;;24.84;62.40
30339;BME280;795;49.296;11.348;2022-10-16T15:02:35;96722.25;;;23.24;69.63
30339;BME280;795;49.296;11.348;2022-10-16T15:05:26;96707.06;;;22.06;75.20
30339;BME280;795;49.296;11.348;2022-10-16T15:07:55;96710.06;;;21.68;78.95
30339;BME280;795;49.296;11.348;2022-10-16T15:10:26;96705.34;;;21.27;82.59